Time;durP1;ratioP1;P1;durP2;ratioP2;P2;SDS_P1;SDS_P2;PMS_P1;PMS_P2;Temp;Humidity;BMP_temperature;BMP_pressure;BME280_temperature;BME280_humidity;BME280_pressure;Samples;Min_cycle;Max_cycle;Signal;HPM_P1;HPM_P2
2021/12/23 00:00:24;;;;;;;45.40;26.07;;;0.50;99.90;;;;;;5095780;28;20446;-85
2021/12/23 00:02:54;;;;;;;52.43;27.40;;;0.60;99.90;;;;;;5096087;28;20454;-86
2021/12/23 00:05:26;;;;;;;54.27;29.20;;;0.60;99.90;;;;;;5096052;28;20427;-86
2021/12/23 00:08:00;;;;;;;51.23;27.33;;;0.50;99.90;;;;;;5095895;28;20442;-86
2021/12/23 00:10:30;;;;;;;52.87;27.37;;;0.70;99.90;;;;;;5095802;28;20453;-87
2021/12/23 00:13:03;;;;;;;54.77;28.77;;;0.70;99.90;;;;;;5095492;28;20453;-87
2021/12/23 00:15:39;;;;;;;52.57;28.93;;;0.80;99.90;;;;;;5095190;28;20492;-85
2021/12/23 00:18:17;;;;;;;48.47;27.83;;;0.80;99.90;;;;;;5095893;28;20425;-86
2021/12/23 00:23:36;;;;;;;52.40;27.63;;;0.80;99.90;;;;;;5095588;28;20521;-88
2021/12/23 00:26:09;;;;;;;52.93;28.30;;;0.80;99.90;;;;;;5095400;28;20886;-88
2021/12/23 00:28:47;;;;;;;47.60;26.23;;;0.70;99.90;;;;;;5095650;28;20505;-87
2021/12/23 00:31:20;;;;;;;50.00;26.57;;;0.80;99.90;;;;;;5095288;28;20480;-86
2021/12/23 00:33:50;;;;;;;55.43;28.90;;;0.70;99.90;;;;;;5095420;28;20453;-89
2021/12/23 00:36:20;;;;;;;48.57;27.00;;;0.70;99.90;;;;;;5095160;28;20485;-89
2021/12/23 00:39:07;;;;;;;50.57;27.37;;;0.70;99.90;;;;;;5095296;28;20446;-88
2021/12/23 00:41:33;;;;;;;48.20;25.37;;;0.70;99.90;;;;;;5095182;28;20498;-86
2021/12/23 00:44:06;;;;;;;51.60;26.93;;;0.60;99.90;;;;;;5095340;28;20450;-87
2021/12/23 00:46:39;;;;;;;51.57;27.17;;;0.70;99.90;;;;;;5094928;28;20429;-88
2021/12/23 00:49:12;;;;;;;51.03;27.37;;;0.70;99.90;;;;;;5095360;28;20446;-86
2021/12/23 00:51:39;;;;;;;57.20;28.20;;;0.80;99.90;;;;;;5094978;28;20918;-84
2021/12/23 00:54:09;;;;;;;50.93;26.97;;;0.70;99.90;;;;;;5109542;28;20467;-86
2021/12/23 00:56:48;;;;;;;49.70;26.27;;;0.80;99.90;;;;;;5115474;28;20480;-87
2021/12/23 00:59:17;;;;;;;50.87;28.00;;;0.70;99.90;;;;;;5115458;28;20490;-88
2021/12/23 01:01:50;;;;;;;55.72;28.67;;;0.70;99.90;;;;;;5115282;28;20511;-88
2021/12/23 01:04:20;;;;;;;56.13;28.40;;;0.80;99.90;;;;;;5115269;27;20196;-88
2021/12/23 01:06:58;;;;;;;53.03;26.63;;;0.90;99.90;;;;;;5115234;28;20467;-88
2021/12/23 01:09:28;;;;;;;49.60;26.63;;;0.80;99.90;;;;;;5114947;28;20453;-88
2021/12/23 01:12:00;;;;;;;52.77;27.37;;;0.80;99.90;;;;;;5114992;28;20429;-87
2021/12/23 01:14:42;;;;;;;50.77;26.23;;;0.70;99.90;;;;;;5114883;28;20520;-87
2021/12/23 01:17:31;;;;;;;50.07;26.70;;;0.70;99.90;;;;;;5114777;28;20538;-87
2021/12/23 01:20:07;;;;;;;48.07;26.07;;;0.70;99.90;;;;;;5114960;28;20531;-88
2021/12/23 01:22:37;;;;;;;52.60;25.80;;;0.70;99.90;;;;;;5114503;28;20880;-89
2021/12/23 01:25:06;;;;;;;49.03;26.57;;;0.70;99.90;;;;;;5114560;28;20641;-87
2021/12/23 01:27:34;;;;;;;49.00;24.77;;;0.80;99.90;;;;;;5115494;28;20437;-89
2021/12/23 01:30:08;;;;;;;41.67;21.70;;;0.80;99.90;;;;;;5116040;28;20429;-89
2021/12/23 01:32:35;;;;;;;49.57;26.33;;;0.80;99.90;;;;;;5115676;28;20445;-88
2021/12/23 01:35:04;;;;;;;53.40;26.33;;;0.70;99.90;;;;;;5116200;28;20436;-88
2021/12/23 01:37:33;;;;;;;46.07;25.07;;;0.80;99.90;;;;;;5116077;28;20461;-87
2021/12/23 01:40:10;;;;;;;58.13;38.67;;;0.80;99.90;;;;;;5114499;28;20425;-90
2021/12/23 01:42:39;;;;;;;54.93;29.90;;;0.90;99.90;;;;;;5114859;28;20555;-85
2021/12/23 01:45:10;;;;;;;53.40;27.93;;;0.90;99.90;;;;;;5114312;28;20421;-88
2021/12/23 01:47:40;;;;;;;51.10;28.60;;;0.90;99.90;;;;;;5114342;28;20436;-87
2021/12/23 01:50:12;;;;;;;51.23;27.00;;;0.90;99.90;;;;;;5113922;28;20448;-86
2021/12/23 01:52:41;;;;;;;49.17;25.27;;;0.90;99.90;;;;;;5113661;27;20491;-88
2021/12/23 01:55:13;;;;;;;51.70;26.90;;;0.90;99.90;;;;;;5114425;28;20451;-88
2021/12/23 01:57:43;;;;;;;48.97;24.63;;;0.90;99.90;;;;;;5114417;28;20456;-85
2021/12/23 02:00:19;;;;;;;51.43;26.50;;;0.90;99.90;;;;;;5114205;28;20447;-88
2021/12/23 02:02:46;;;;;;;50.60;26.93;;;1.00;99.90;;;;;;5113837;28;20456;-87
2021/12/23 02:05:19;;;;;;;48.40;27.13;;;0.90;99.90;;;;;;5114000;28;20899;-87
2021/12/23 02:07:47;;;;;;;53.20;27.03;;;1.00;99.90;;;;;;5114194;28;20517;-88
2021/12/23 02:10:17;;;;;;;55.17;25.40;;;1.00;99.90;;;;;;5113973;28;20944;-88
2021/12/23 02:12:51;;;;;;;48.63;26.13;;;0.90;99.90;;;;;;5114026;28;20452;-87
2021/12/23 02:15:18;;;;;;;52.87;26.47;;;0.80;99.90;;;;;;5114136;28;20455;-87
2021/12/23 02:17:50;;;;;;;54.10;27.53;;;0.90;99.90;;;;;;5114018;28;21270;-86
2021/12/23 02:20:29;;;;;;;51.73;27.27;;;0.80;99.90;;;;;;5113898;28;20425;-86
2021/12/23 02:22:58;;;;;;;52.97;26.53;;;0.80;99.90;;;;;;5113757;28;20437;-86
2021/12/23 02:25:33;;;;;;;56.40;29.17;;;1.00;99.90;;;;;;5114398;28;20935;-85
2021/12/23 02:28:07;;;;;;;49.87;25.57;;;1.10;99.90;;;;;;5114037;27;20452;-87
2021/12/23 02:30:38;;;;;;;52.37;26.97;;;1.00;99.90;;;;;;5113820;28;20520;-86
2021/12/23 02:33:11;;;;;;;53.47;26.50;;;0.90;99.90;;;;;;5113739;28;20456;-87
2021/12/23 02:35:45;;;;;;;55.40;27.43;;;0.90;99.90;;;;;;5114030;28;20507;-85
2021/12/23 02:38:22;;;;;;;55.80;26.77;;;1.00;99.90;;;;;;5116928;28;20436;-86
2021/12/23 02:40:54;;;;;;;50.93;26.93;;;1.00;99.90;;;;;;5117911;28;20432;-88
2021/12/23 02:43:29;;;;;;;50.30;26.50;;;0.90;99.90;;;;;;5117906;28;20456;-86
2021/12/23 02:46:00;;;;;;;55.63;27.77;;;0.90;99.90;;;;;;5118032;28;20448;-86
2021/12/23 02:48:32;;;;;;;51.33;27.57;;;0.90;99.90;;;;;;5118026;28;20453;-88
2021/12/23 02:51:04;;;;;;;52.90;27.90;;;0.80;99.90;;;;;;5117875;28;20428;-88
2021/12/23 02:53:46;;;;;;;52.50;27.03;;;0.80;99.90;;;;;;5115280;28;20212;-90
2021/12/23 02:56:15;;;;;;;53.03;27.93;;;0.90;99.90;;;;;;5117816;28;20483;-85
2021/12/23 02:58:45;;;;;;;54.63;27.73;;;0.90;99.90;;;;;;5117680;28;20475;-85
2021/12/23 03:01:20;;;;;;;52.50;27.77;;;0.90;99.90;;;;;;5117314;28;20980;-86
2021/12/23 03:03:49;;;;;;;53.67;25.50;;;1.00;99.90;;;;;;5117193;28;20455;-85
2021/12/23 03:06:23;;;;;;;58.17;28.73;;;0.80;99.90;;;;;;5117687;28;20459;-87
2021/12/23 03:08:56;;;;;;;55.43;27.67;;;1.00;99.90;;;;;;5117420;28;20460;-87
2021/12/23 03:11:31;;;;;;;51.00;27.23;;;1.00;99.90;;;;;;5117084;28;20481;-88
2021/12/23 03:13:58;;;;;;;50.00;26.93;;;0.90;99.90;;;;;;5117154;28;20460;-87
2021/12/23 03:16:28;;;;;;;57.80;28.40;;;0.90;99.90;;;;;;5117091;28;20464;-85
2021/12/23 03:19:01;;;;;;;55.60;29.00;;;0.90;99.90;;;;;;5116914;28;20425;-88
2021/12/23 03:21:30;;;;;;;54.73;26.77;;;0.90;99.90;;;;;;5116959;27;20448;-88
2021/12/23 03:23:57;;;;;;;55.10;28.70;;;1.00;99.90;;;;;;5116953;28;20433;-88
2021/12/23 03:26:30;;;;;;;50.67;26.23;;;1.00;99.90;;;;;;5117123;27;20456;-89
2021/12/23 03:29:00;;;;;;;62.05;39.47;;;0.90;99.90;;;;;;5116088;28;20427;-90
2021/12/23 03:31:35;;;;;;;54.33;29.30;;;1.10;99.90;;;;;;5117038;28;20188;-89
2021/12/23 03:34:09;;;;;;;57.40;28.47;;;1.10;99.90;;;;;;5116631;28;20843;-89
2021/12/23 03:36:44;;;;;;;54.57;28.10;;;1.10;99.90;;;;;;5116774;28;20475;-87
2021/12/23 03:39:14;;;;;;;51.53;27.30;;;1.00;99.90;;;;;;5117056;28;20451;-88
2021/12/23 03:41:44;;;;;;;53.87;26.33;;;0.90;99.90;;;;;;5116993;27;20425;-88
2021/12/23 03:44:10;;;;;;;50.40;26.30;;;1.00;99.90;;;;;;5116627;28;20445;-90
2021/12/23 03:46:43;;;;;;;54.40;26.03;;;1.00;99.90;;;;;;5116802;28;20449;-87
2021/12/23 03:49:16;;;;;;;51.47;27.00;;;1.00;99.90;;;;;;5115540;28;20441;-88
2021/12/23 03:51:47;;;;;;;54.10;26.77;;;1.00;99.90;;;;;;5116832;27;20441;-91
2021/12/23 03:54:20;;;;;;;52.03;26.43;;;1.00;99.90;;;;;;5112407;28;20972;-89
2021/12/23 03:56:52;;;;;;;54.30;26.23;;;1.00;99.90;;;;;;5096375;28;20504;-88
2021/12/23 03:59:25;;;;;;;52.43;25.83;;;1.10;99.90;;;;;;5096007;28;20919;-87
2021/12/23 04:02:03;;;;;;;53.43;27.13;;;1.00;99.90;;;;;;5099034;28;20463;-90
2021/12/23 04:04:51;;;;;;;62.08;34.92;;;0.90;99.90;;;;;;5108885;28;20441;-87
2021/12/23 04:07:22;;;;;;;53.50;27.70;;;0.90;99.90;;;;;;5115954;28;20207;-92
2021/12/23 04:09:49;;;;;;;54.60;27.53;;;1.00;99.90;;;;;;5116010;27;20553;-89
2021/12/23 04:12:19;;;;;;;55.60;26.03;;;1.20;99.90;;;;;;5116114;28;20441;-89
2021/12/23 04:14:52;;;;;;;48.37;22.47;;;1.10;99.90;;;;;;5116058;28;20967;-87
2021/12/23 04:17:20;;;;;;;49.03;25.27;;;1.00;99.90;;;;;;5115798;27;20491;-89
2021/12/23 04:20:03;;;;;;;55.63;27.93;;;1.00;99.90;;;;;;5116105;28;20448;-88
2021/12/23 04:22:34;;;;;;;41.03;21.47;;;0.80;99.90;;;;;;5116506;28;20468;-88
2021/12/23 04:25:01;;;;;;;55.77;25.80;;;0.90;99.90;;;;;;5116447;28;20947;-85
2021/12/23 04:27:34;;;;;;;56.67;26.77;;;0.90;99.90;;;;;;5116138;28;20451;-88
2021/12/23 04:30:01;;;;;;;54.70;27.40;;;1.00;99.90;;;;;;5115946;27;20445;-86
2021/12/23 04:32:29;;;;;;;52.53;26.20;;;1.00;99.90;;;;;;5115639;28;20460;-88
2021/12/23 04:35:02;;;;;;;54.47;26.63;;;1.00;99.90;;;;;;5115611;28;20923;-86
2021/12/23 04:37:36;;;;;;;54.00;26.83;;;1.00;99.90;;;;;;5115794;27;20485;-88
2021/12/23 04:40:08;;;;;;;53.90;24.53;;;1.10;99.90;;;;;;5115748;28;20467;-86
2021/12/23 04:42:41;;;;;;;55.27;25.77;;;1.10;99.90;;;;;;5115955;28;20444;-88
2021/12/23 04:45:09;;;;;;;55.47;27.60;;;1.10;99.90;;;;;;5115492;28;20449;-88
2021/12/23 04:47:38;;;;;;;55.87;25.77;;;1.10;99.90;;;;;;5115259;28;20656;-87
2021/12/23 04:50:09;;;;;;;53.03;25.63;;;1.10;99.90;;;;;;5115607;28;20448;-86
2021/12/23 04:52:40;;;;;;;51.33;24.33;;;1.10;99.90;;;;;;5115561;28;20457;-88
2021/12/23 04:55:14;;;;;;;48.17;24.73;;;1.00;99.90;;;;;;5111024;28;20539;-88
2021/12/23 04:57:47;;;;;;;52.90;26.60;;;1.00;99.90;;;;;;5094688;28;20484;-88
2021/12/23 05:00:21;;;;;;;56.33;27.57;;;1.00;99.90;;;;;;5094600;28;20450;-88
2021/12/23 05:02:49;;;;;;;49.63;26.60;;;1.00;99.90;;;;;;5094778;28;20819;-88
2021/12/23 05:05:22;;;;;;;50.07;25.73;;;1.10;99.90;;;;;;5094949;28;20492;-86
2021/12/23 05:07:56;;;;;;;51.00;24.33;;;1.20;99.90;;;;;;5095177;28;20469;-88
2021/12/23 05:10:25;;;;;;;51.77;26.87;;;1.20;99.90;;;;;;5094738;28;20448;-87
2021/12/23 05:12:53;;;;;;;57.43;26.60;;;1.30;99.90;;;;;;5093374;28;20445;-86
2021/12/23 05:15:21;;;;;;;50.77;26.40;;;1.30;99.90;;;;;;5094249;28;20465;-86
2021/12/23 05:17:50;;;;;;;55.40;27.23;;;1.40;99.90;;;;;;5097784;28;20473;-85
2021/12/23 05:20:21;;;;;;;52.20;25.53;;;1.50;99.90;;;;;;5116500;28;20452;-85
2021/12/23 05:22:48;;;;;;;54.37;26.50;;;1.40;99.90;;;;;;5118212;28;20437;-91
2021/12/23 05:25:17;;;;;;;50.83;25.73;;;1.40;99.90;;;;;;5120357;28;20425;-87
2021/12/23 05:27:46;;;;;;;50.00;25.77;;;1.30;99.90;;;;;;5127599;28;20901;-91
2021/12/23 05:30:16;;;;;;;58.50;26.60;;;1.30;99.90;;;;;;5125328;28;20451;-88
2021/12/23 05:32:45;;;;;;;51.50;25.87;;;1.30;99.90;;;;;;5126663;28;20463;-89
2021/12/23 05:35:13;;;;;;;51.10;25.67;;;1.50;99.90;;;;;;5124329;28;20460;-92
2021/12/23 05:37:41;;;;;;;54.30;26.70;;;1.40;99.90;;;;;;5125076;28;20485;-93
2021/12/23 05:40:10;;;;;;;51.47;25.73;;;1.30;99.90;;;;;;5119509;28;20515;-92
2021/12/23 05:42:39;;;;;;;45.87;24.57;;;1.40;99.90;;;;;;5120276;28;20433;-91
2021/12/23 05:45:08;;;;;;;52.13;25.77;;;1.30;99.90;;;;;;5119427;28;20950;-89
2021/12/23 05:47:35;;;;;;;48.57;26.47;;;1.30;99.90;;;;;;5119724;28;20811;-86
2021/12/23 05:50:01;;;;;;;47.90;26.50;;;1.30;99.90;;;;;;5114966;28;20445;-90
2021/12/23 05:52:45;;;;;;;52.37;27.23;;;1.40;99.90;;;;;;5128131;28;20457;-85
2021/12/23 05:55:17;;;;;;;55.60;26.77;;;1.40;99.90;;;;;;5133380;28;20439;-84
2021/12/23 05:57:53;;;;;;;50.33;26.13;;;1.50;99.90;;;;;;5125492;28;20472;-87
2021/12/23 06:00:22;;;;;;;48.13;25.07;;;1.50;99.90;;;;;;5122428;28;20547;-86
2021/12/23 06:02:52;;;;;;;51.93;26.13;;;1.50;99.90;;;;;;5104276;28;20457;-86
2021/12/23 06:05:22;;;;;;;48.13;26.47;;;1.50;99.90;;;;;;5102126;28;20446;-85
2021/12/23 06:07:51;;;;;;;48.07;24.57;;;1.40;99.90;;;;;;5101573;28;20461;-84
2021/12/23 06:10:20;;;;;;;50.67;24.90;;;1.50;99.90;;;;;;5101228;28;20465;-87
2021/12/23 06:12:49;;;;;;;51.30;25.23;;;1.50;99.90;;;;;;5104533;28;20438;-86
2021/12/23 06:15:18;;;;;;;48.50;25.90;;;1.50;99.90;;;;;;5105599;28;20442;-88
2021/12/23 06:17:47;;;;;;;48.93;25.17;;;1.60;99.90;;;;;;5105244;28;20488;-86
2021/12/23 06:20:15;;;;;;;46.40;25.10;;;1.60;99.90;;;;;;5105300;28;20904;-86
2021/12/23 06:22:47;;;;;;;55.80;25.70;;;1.70;99.90;;;;;;5108030;28;20441;-84
2021/12/23 06:25:14;;;;;;;49.97;25.53;;;1.80;99.90;;;;;;5103681;28;20441;-85
2021/12/23 06:27:42;;;;;;;51.60;25.97;;;1.80;99.90;;;;;;5103403;28;20450;-84
2021/12/23 06:30:17;;;;;;;50.43;26.93;;;1.80;99.90;;;;;;5099074;28;20430;-85
2021/12/23 06:32:52;;;;;;;47.70;25.73;;;1.80;99.90;;;;;;5096363;28;20438;-86
2021/12/23 06:35:24;;;;;;;47.83;26.40;;;1.90;99.90;;;;;;5096645;28;20543;-85
2021/12/23 06:37:52;;;;;;;48.43;24.30;;;1.80;99.90;;;;;;5096912;28;20489;-85
2021/12/23 06:40:21;;;;;;;48.93;25.97;;;2.00;99.90;;;;;;5098913;28;20533;-86
2021/12/23 06:42:49;;;;;;;52.17;25.47;;;1.90;99.90;;;;;;5097936;28;20434;-87
2021/12/23 06:45:20;;;;;;;49.10;26.00;;;1.90;99.90;;;;;;5096962;28;20927;-85
2021/12/23 06:47:49;;;;;;;47.27;24.63;;;1.90;99.90;;;;;;5098347;28;20441;-83
2021/12/23 06:50:20;;;;;;;50.53;25.73;;;1.90;99.90;;;;;;5099105;28;20956;-86
2021/12/23 06:52:48;;;;;;;49.73;24.67;;;2.00;99.90;;;;;;5105334;28;20471;-87
2021/12/23 06:55:20;;;;;;;50.00;25.40;;;2.00;99.90;;;;;;5111260;28;20490;-84
2021/12/23 06:57:52;;;;;;;47.83;25.30;;;2.00;99.90;;;;;;5112951;28;20845;-86
2021/12/23 07:00:21;;;;;;;47.27;25.17;;;2.00;99.90;;;;;;5113341;28;20673;-86
2021/12/23 07:02:48;;;;;;;49.50;26.00;;;2.00;99.90;;;;;;5113625;28;20444;-89
2021/12/23 07:05:15;;;;;;;48.40;25.30;;;2.20;99.90;;;;;;5114131;28;20484;-89
2021/12/23 07:07:52;;;;;;;45.87;25.00;;;2.20;99.90;;;;;;5114378;28;20508;-85
2021/12/23 07:10:19;;;;;;;47.93;24.77;;;2.10;99.90;;;;;;5113507;28;20965;-86
2021/12/23 07:12:46;;;;;;;50.33;25.43;;;2.10;99.90;;;;;;5113136;28;20463;-88
2021/12/23 07:15:13;;;;;;;46.23;25.43;;;2.20;99.90;;;;;;5113001;28;20444;-89
2021/12/23 07:17:42;;;;;;;49.30;25.80;;;2.20;99.90;;;;;;5113061;28;20816;-87
2021/12/23 07:20:10;;;;;;;48.37;24.73;;;2.20;99.90;;;;;;5112952;28;20559;-85
2021/12/23 07:22:37;;;;;;;47.03;25.77;;;2.30;99.90;;;;;;5112984;28;20531;-85
2021/12/23 07:25:04;;;;;;;47.20;24.43;;;2.30;99.90;;;;;;5115191;28;20440;-86
2021/12/23 07:27:33;;;;;;;48.97;25.03;;;2.30;99.90;;;;;;5116223;28;20433;-83
2021/12/23 07:30:02;;;;;;;46.93;23.37;;;2.40;99.90;;;;;;5114763;28;20449;-85
2021/12/23 07:32:28;;;;;;;46.37;24.40;;;2.50;99.90;;;;;;5095811;28;20441;-84
2021/12/23 07:34:57;;;;;;;50.43;25.67;;;2.40;99.90;;;;;;5096236;28;20438;-85
2021/12/23 07:37:24;;;;;;;49.43;24.90;;;2.30;99.90;;;;;;5095606;28;20497;-84
2021/12/23 07:39:52;;;;;;;44.50;24.77;;;2.30;99.90;;;;;;5095592;28;20799;-83
2021/12/23 07:42:20;;;;;;;41.63;24.03;;;2.30;99.90;;;;;;5096916;28;20450;-85
2021/12/23 07:44:50;;;;;;;46.17;24.37;;;2.30;99.90;;;;;;5095695;28;20463;-84
2021/12/23 07:47:17;;;;;;;42.40;24.30;;;2.40;99.90;;;;;;5095335;28;20460;-85
2021/12/23 07:49:45;;;;;;;41.43;23.87;;;2.50;99.90;;;;;;5095751;28;20835;-85
2021/12/23 07:52:15;;;;;;;44.87;24.13;;;2.50;99.90;;;;;;5096117;28;20486;-85
2021/12/23 07:54:43;;;;;;;42.00;23.50;;;2.60;99.90;;;;;;5095585;28;20465;-84
2021/12/23 07:57:10;;;;;;;41.37;23.33;;;2.60;99.90;;;;;;5094896;28;20945;-83
2021/12/23 07:59:38;;;;;;;47.10;23.77;;;2.70;99.90;;;;;;5095668;28;20444;-85
2021/12/23 08:02:04;;;;;;;46.83;23.03;;;2.70;99.90;;;;;;5094939;28;20442;-82
2021/12/23 08:04:33;;;;;;;42.30;23.47;;;2.70;99.90;;;;;;5095183;28;20434;-84
2021/12/23 08:07:02;;;;;;;44.87;24.73;;;2.60;99.90;;;;;;5095631;28;20984;-84
2021/12/23 08:09:35;;;;;;;44.17;24.40;;;2.70;99.90;;;;;;5100199;28;20446;-84
2021/12/23 08:12:05;;;;;;;40.77;21.83;;;2.80;99.90;;;;;;5107351;28;20947;-82
2021/12/23 08:14:34;;;;;;;41.20;22.57;;;2.80;99.90;;;;;;5102990;28;20436;-86
2021/12/23 08:17:02;;;;;;;42.43;22.63;;;2.70;99.90;;;;;;5105601;28;20448;-84
2021/12/23 08:19:30;;;;;;;43.73;24.43;;;2.80;99.90;;;;;;5100412;28;20450;-86
2021/12/23 08:21:57;;;;;;;50.63;25.10;;;2.80;99.90;;;;;;5097331;28;20450;-83
2021/12/23 08:24:24;;;;;;;41.33;23.63;;;2.80;99.90;;;;;;5107796;28;20448;-81
2021/12/23 08:26:53;;;;;;;42.10;22.97;;;2.80;99.90;;;;;;5099852;28;20950;-83
2021/12/23 08:29:22;;;;;;;37.40;23.80;;;2.80;99.90;;;;;;5105010;28;20449;-84
2021/12/23 08:31:53;;;;;;;41.70;22.67;;;2.80;99.90;;;;;;5114998;28;20528;-85
2021/12/23 08:34:20;;;;;;;43.90;23.43;;;2.70;99.90;;;;;;5114716;28;20449;-85
2021/12/23 08:36:47;;;;;;;42.40;23.17;;;2.60;99.90;;;;;;5115186;28;20475;-87
2021/12/23 08:39:17;;;;;;;39.47;23.03;;;2.70;99.90;;;;;;5115090;28;20583;-86
2021/12/23 08:41:45;;;;;;;40.47;23.20;;;2.70;99.90;;;;;;5102935;28;20449;-90
2021/12/23 08:44:16;;;;;;;38.67;22.73;;;2.70;99.90;;;;;;5095745;28;20438;-90
2021/12/23 08:46:51;;;;;;;38.73;22.33;;;2.70;99.90;;;;;;5095611;28;20426;-86
2021/12/23 08:49:20;;;;;;;39.33;21.23;;;2.70;99.90;;;;;;5095427;28;20457;-89
2021/12/23 08:51:54;;;;;;;38.97;23.40;;;2.80;99.90;;;;;;5110550;28;20444;-90
2021/12/23 08:54:24;;;;;;;39.93;23.90;;;2.90;99.90;;;;;;5115297;27;20451;-87
2021/12/23 08:56:53;;;;;;;40.55;25.70;;;2.90;99.90;;;;;;5115570;28;20429;-87
2021/12/23 08:59:24;;;;;;;41.27;23.47;;;3.10;99.90;;;;;;5115198;28;20687;-85
2021/12/23 09:01:50;;;;;;;40.47;22.57;;;3.20;99.90;;;;;;5115019;28;20441;-86
2021/12/23 09:04:21;;;;;;;38.90;22.43;;;3.20;99.90;;;;;;5115207;28;20924;-85
2021/12/23 09:06:48;;;;;;;41.20;22.60;;;3.30;99.90;;;;;;5105425;28;20494;-86
2021/12/23 09:09:16;;;;;;;35.07;21.27;;;3.40;99.90;;;;;;5095384;28;20453;-86
2021/12/23 09:11:49;;;;;;;39.63;22.00;;;3.50;99.90;;;;;;5095197;28;20457;-87
2021/12/23 09:14:16;;;;;;;34.50;21.37;;;3.50;99.90;;;;;;5094960;28;20426;-86
2021/12/23 09:16:49;;;;;;;40.40;22.70;;;3.70;99.90;;;;;;5096412;28;20492;-90
2021/12/23 09:19:22;;;;;;;40.87;21.53;;;3.80;99.90;;;;;;5095458;28;20488;-87
2021/12/23 09:21:51;;;;;;;40.03;21.40;;;3.60;99.90;;;;;;5104866;28;20445;-87
2021/12/23 09:24:26;;;;;;;31.70;19.97;;;3.60;99.90;;;;;;5115562;28;20464;-88
2021/12/23 09:27:08;;;;;;;35.60;21.57;;;3.60;99.90;;;;;;5115769;28;20598;-88
2021/12/23 09:32:53;;;;;;;34.37;19.53;;;3.60;99.90;;;;;;5115738;28;20813;-85
2021/12/23 09:35:28;;;;;;;36.00;20.67;;;3.50;99.90;;;;;;5115851;28;20453;-87
2021/12/23 09:37:56;;;;;;;35.83;21.53;;;3.60;99.90;;;;;;5115637;28;20528;-87
2021/12/23 09:40:24;;;;;;;36.17;19.83;;;3.60;99.90;;;;;;5115624;28;20457;-89
2021/12/23 09:42:52;;;;;;;33.47;20.23;;;3.70;99.90;;;;;;5114421;28;20476;-89
2021/12/23 09:45:20;;;;;;;34.73;20.27;;;3.80;99.90;;;;;;5115510;28;20449;-88
2021/12/23 09:47:50;;;;;;;34.07;20.67;;;3.90;99.90;;;;;;5114849;28;20499;-88
2021/12/23 09:50:20;;;;;;;32.30;20.97;;;4.00;99.90;;;;;;5115384;28;20444;-87
2021/12/23 09:52:50;;;;;;;30.17;19.70;;;3.90;99.90;;;;;;5115683;28;20471;-89
2021/12/23 09:55:22;;;;;;;31.27;19.57;;;3.90;99.90;;;;;;5108853;28;20426;-87
2021/12/23 09:57:58;;;;;;;31.87;19.70;;;3.80;99.90;;;;;;5114986;28;20436;-88
2021/12/23 10:00:29;;;;;;;31.33;20.07;;;3.90;99.90;;;;;;5114834;28;20436;-87
2021/12/23 10:03:03;;;;;;;34.27;19.47;;;3.90;99.90;;;;;;5114879;28;20531;-87
2021/12/23 10:05:37;;;;;;;32.43;19.63;;;3.90;99.90;;;;;;5114840;28;20436;-89
2021/12/23 10:08:13;;;;;;;33.20;25.20;;;4.00;99.90;;;;;;5113996;28;20523;-89
2021/12/23 10:10:45;;;;;;;30.80;20.50;;;4.00;99.90;;;;;;5103896;28;20294;-86
2021/12/23 10:28:54;;;;;;;30.70;19.93;;;4.20;99.90;;;;;;5114269;28;20438;-87
2021/12/23 10:30:44;;;;;;;28.90;18.13;;;4.30;99.90;;;;;;5103360;28;20452;-89
2021/12/23 10:33:46;;;;;;;35.03;19.33;;;4.40;99.90;;;;;;5102579;28;20450;-89
2021/12/23 10:39:21;;;;;;;31.60;19.37;;;4.40;99.90;;;;;;5093963;28;20547;-88
2021/12/23 10:42:09;;;;;;;30.60;19.60;;;4.40;99.90;;;;;;5093528;28;20917;-89
2021/12/23 10:44:48;;;;;;;33.37;19.80;;;4.60;99.90;;;;;;5093986;28;20532;-87
2021/12/23 10:47:30;;;;;;;30.13;18.97;;;4.60;99.90;;;;;;5094180;28;20457;-87
2021/12/23 10:50:17;;;;;;;30.73;20.70;;;4.80;99.90;;;;;;5093925;28;20499;-86
2021/12/23 10:52:54;;;;;;;28.97;18.53;;;4.90;99.90;;;;;;5094008;28;20561;-86
2021/12/23 10:58:15;;;;;;;31.63;19.30;;;4.90;99.90;;;;;;5094357;28;20472;-88
2021/12/23 11:00:46;;;;;;;36.90;19.80;;;4.90;99.90;;;;;;5097619;28;20461;-88
2021/12/23 11:03:17;;;;;;;34.53;19.50;;;4.90;99.90;;;;;;5095599;28;20853;-87
2021/12/23 11:05:51;;;;;;;39.63;22.80;;;4.90;99.90;;;;;;5099053;28;20457;-86
2021/12/23 11:08:27;;;;;;;31.03;20.10;;;4.80;99.90;;;;;;5112359;28;20460;-87
2021/12/23 11:36:59;;;;;;;29.50;19.60;;;5.10;99.90;;;;;;5119165;28;20180;-86
2021/12/23 11:39:32;;;;;;;31.43;20.03;;;5.20;99.90;;;;;;5111474;28;20547;-89
2021/12/23 11:42:06;;;;;;;30.70;19.77;;;5.30;99.90;;;;;;5117397;28;20674;-87
2021/12/23 11:44:35;;;;;;;29.20;18.87;;;5.40;99.90;;;;;;5117071;28;20197;-86
2021/12/23 11:47:09;;;;;;;30.67;19.73;;;5.30;99.90;;;;;;5116545;28;20592;-86
2021/12/23 11:49:43;;;;;;;29.30;19.07;;;5.40;99.90;;;;;;5117038;27;20200;-89
2021/12/23 11:52:16;;;;;;;32.07;20.43;;;5.30;99.90;;;;;;5116974;28;20599;-90
2021/12/23 11:54:49;;;;;;;28.77;19.33;;;5.20;99.90;;;;;;5116803;28;20797;-85
2021/12/23 11:57:26;;;;;;;31.50;19.63;;;5.30;99.90;;;;;;5117052;28;20215;-89
2021/12/23 12:00:03;;;;;;;25.30;18.27;;;5.30;99.90;;;;;;5115897;28;21025;-88
2021/12/23 12:02:36;;;;;;;29.43;19.23;;;5.10;99.90;;;;;;5095945;28;20540;-89
2021/12/23 12:05:09;;;;;;;33.17;19.20;;;4.90;99.90;;;;;;5096474;28;20575;-90
2021/12/23 12:07:41;;;;;;;28.83;18.63;;;4.80;99.90;;;;;;5096514;28;20427;-89
2021/12/23 12:10:20;;;;;;;29.87;20.37;;;4.90;99.90;;;;;;5095955;28;20617;-91
2021/12/23 12:13:02;;;;;;;29.63;19.47;;;5.10;99.90;;;;;;5095830;28;20449;-87
2021/12/23 12:15:50;;;;;;;33.17;19.57;;;4.90;99.90;;;;;;5096030;28;20205;-89
2021/12/23 12:18:27;;;;;;;34.87;19.97;;;4.80;99.90;;;;;;5096370;28;20507;-90
2021/12/23 12:21:02;;;;;;;30.23;19.80;;;4.80;99.90;;;;;;5095976;28;20503;-90
2021/12/23 12:23:32;;;;;;;30.87;19.90;;;4.80;99.90;;;;;;5096252;28;20479;-91
2021/12/23 12:26:03;;;;;;;31.57;19.20;;;4.80;99.90;;;;;;5096271;28;20219;-87
2021/12/23 12:28:36;;;;;;;28.80;18.83;;;4.80;99.90;;;;;;5096173;28;20457;-91
2021/12/23 12:31:06;;;;;;;32.50;19.77;;;4.80;99.90;;;;;;5095842;28;20454;-89
2021/12/23 12:33:42;;;;;;;36.47;27.15;;;4.80;99.90;;;;;;5095135;28;20484;-89
2021/12/23 12:36:12;;;;;;;32.10;21.83;;;5.00;99.90;;;;;;5096140;28;20211;-91
2021/12/23 12:38:41;;;;;;;35.13;20.20;;;5.00;99.90;;;;;;5106620;27;20224;-91
2021/12/23 12:41:12;;;;;;;30.50;18.23;;;5.00;99.90;;;;;;5112718;28;20208;-87
2021/12/23 12:43:58;;;;;;;29.13;17.67;;;5.10;99.90;;;;;;5105844;28;20212;-91
2021/12/23 12:47:12;;;;;;;31.47;20.70;;;5.10;99.90;;;;;;5106023;28;20197;-88
2021/12/23 12:49:45;;;;;;;36.23;20.30;;;5.20;99.90;;;;;;5105731;28;20209;-91
2021/12/23 12:52:24;;;;;;;30.97;19.93;;;5.20;99.90;;;;;;5109481;28;20228;-89
2021/12/23 12:54:57;;;;;;;35.83;21.07;;;5.00;99.90;;;;;;5096658;28;20442;-88
2021/12/23 12:57:31;;;;;;;34.87;21.57;;;5.10;99.90;;;;;;5095422;28;20448;-84
2021/12/23 13:00:21;;;;;;;35.90;22.07;;;5.00;99.90;;;;;;5098087;28;20861;-88
2021/12/23 13:02:58;;;;;;;36.83;25.38;;;4.90;99.90;;;;;;5104330;28;20425;-89
2021/12/23 13:05:38;;;;;;;36.33;22.37;;;4.90;99.90;;;;;;5100163;28;20204;-89
2021/12/23 13:08:19;;;;;;;37.03;23.00;;;4.90;99.90;;;;;;5108673;28;20470;-88
2021/12/23 13:10:50;;;;;;;37.10;20.77;;;4.70;99.90;;;;;;5103123;28;20831;-88
2021/12/23 13:13:32;;;;;;;43.07;23.43;;;4.70;99.90;;;;;;5103313;28;20540;-88
2021/12/23 13:16:01;;;;;;;40.53;21.07;;;4.70;99.90;;;;;;5119090;28;20459;-78
2021/12/23 13:18:31;;;;;;;41.60;23.07;;;4.70;99.90;;;;;;5124605;28;20453;-82
2021/12/23 13:21:05;;;;;;;38.90;23.33;;;4.70;99.90;;;;;;5116598;28;20446;-89
2021/12/23 13:23:40;;;;;;;43.63;24.73;;;4.60;99.90;;;;;;5094404;28;20442;-89
2021/12/23 13:26:11;;;;;;;43.93;23.80;;;4.70;99.90;;;;;;5094939;28;20294;-88
2021/12/23 13:28:44;;;;;;;48.97;24.67;;;4.70;99.90;;;;;;5093359;28;20491;-90
2021/12/23 13:31:16;;;;;;;44.13;24.27;;;4.80;99.90;;;;;;5094851;28;20434;-88
2021/12/23 13:33:48;;;;;;;49.60;28.95;;;4.70;99.90;;;;;;5094804;28;20434;-89
2021/12/23 13:36:23;;;;;;;50.87;25.37;;;4.60;99.90;;;;;;5093974;28;20205;-88
2021/12/23 13:38:52;;;;;;;47.60;26.17;;;4.70;99.90;;;;;;5109486;28;20479;-89
2021/12/23 13:41:27;;;;;;;47.40;23.80;;;4.70;99.90;;;;;;5117410;28;20523;-87
2021/12/23 13:43:56;;;;;;;42.73;25.23;;;4.70;99.90;;;;;;5115253;28;20192;-87
2021/12/23 13:46:32;;;;;;;46.20;24.13;;;4.60;99.90;;;;;;5115767;28;20444;-88
2021/12/23 13:49:08;;;;;;;47.93;25.10;;;4.60;99.90;;;;;;5115026;28;20452;-87
2021/12/23 13:51:47;;;;;;;49.07;25.23;;;4.60;99.90;;;;;;5115068;28;20460;-87